sensor_id;sensor_type;location;lat;lon;timestamp;P1;durP1;ratioP1;P2;durP2;ratioP2
4583;SDS011;2304;47.606;12.186;2022-08-04T00:04:07;6.47;;;2.77;;
4583;SDS011;2304;47.606;12.186;2022-08-04T00:09:15;6.53;;;2.67;;
4583;SDS011;2304;47.606;12.186;2022-08-04T00:14:21;3.67;;;3.00;;
4583;SDS011;2304;47.606;12.186;2022-08-04T00:19:25;6.03;;;3.50;;
4583;SDS011;2304;47.606;12.186;2022-08-04T00:24:33;11.80;;;3.47;;
4583;SDS011;2304;47.606;12.186;2022-08-04T00:29:36;5.83;;;3.17;;
4583;SDS011;2304;47.606;12.186;2022-08-04T00:34:39;4.50;;;2.97;;
4583;SDS011;2304;47.606;12.186;2022-08-04T00:39:43;6.23;;;3.77;;
4583;SDS011;2304;47.606;12.186;2022-08-04T00:44:50;6.03;;;3.80;;
4583;SDS011;2304;47.606;12.186;2022-08-04T00:50:04;5.10;;;3.23;;
4583;SDS011;2304;47.606;12.186;2022-08-04T00:55:17;4.73;;;3.30;;
4583;SDS011;2304;47.606;12.186;2022-08-04T01:00:39;4.27;;;3.17;;
4583;SDS011;2304;47.606;12.186;2022-08-04T01:05:48;4.40;;;3.00;;
4583;SDS011;2304;47.606;12.186;2022-08-04T01:11:11;7.90;;;3.73;;
4583;SDS011;2304;47.606;12.186;2022-08-04T01:16:21;7.10;;;4.50;;
4583;SDS011;2304;47.606;12.186;2022-08-04T01:27:08;6.93;;;3.10;;
4583;SDS011;2304;47.606;12.186;2022-08-04T01:32:19;5.13;;;3.50;;
4583;SDS011;2304;47.606;12.186;2022-08-04T01:37:27;6.87;;;3.40;;
4583;SDS011;2304;47.606;12.186;2022-08-04T01:42:45;4.33;;;2.97;;
4583;SDS011;2304;47.606;12.186;2022-08-04T01:47:52;11.50;;;3.47;;
4583;SDS011;2304;47.606;12.186;2022-08-04T01:52:57;4.57;;;3.70;;
4583;SDS011;2304;47.606;12.186;2022-08-04T01:58:00;6.57;;;3.97;;
4583;SDS011;2304;47.606;12.186;2022-08-04T02:03:09;5.43;;;3.90;;
4583;SDS011;2304;47.606;12.186;2022-08-04T02:08:14;4.77;;;3.77;;
4583;SDS011;2304;47.606;12.186;2022-08-04T02:13:23;8.20;;;3.47;;
4583;SDS011;2304;47.606;12.186;2022-08-04T02:18:37;6.33;;;3.47;;
4583;SDS011;2304;47.606;12.186;2022-08-04T02:23:58;4.60;;;3.50;;
4583;SDS011;2304;47.606;12.186;2022-08-04T02:29:03;7.33;;;3.67;;
4583;SDS011;2304;47.606;12.186;2022-08-04T02:34:16;5.70;;;3.10;;
4583;SDS011;2304;47.606;12.186;2022-08-04T02:39:25;3.73;;;2.80;;
4583;SDS011;2304;47.606;12.186;2022-08-04T02:44:33;4.53;;;3.47;;
4583;SDS011;2304;47.606;12.186;2022-08-04T02:49:39;3.50;;;3.00;;
4583;SDS011;2304;47.606;12.186;2022-08-04T02:54:44;5.80;;;3.80;;
4583;SDS011;2304;47.606;12.186;2022-08-04T02:59:53;4.60;;;3.13;;
4583;SDS011;2304;47.606;12.186;2022-08-04T03:05:09;14.30;;;3.40;;
4583;SDS011;2304;47.606;12.186;2022-08-04T03:10:25;7.60;;;3.50;;
4583;SDS011;2304;47.606;12.186;2022-08-04T03:15:53;7.57;;;3.50;;
4583;SDS011;2304;47.606;12.186;2022-08-04T03:21:11;5.03;;;3.20;;
4583;SDS011;2304;47.606;12.186;2022-08-04T03:26:45;4.77;;;3.37;;
4583;SDS011;2304;47.606;12.186;2022-08-04T03:32:19;4.90;;;3.20;;
4583;SDS011;2304;47.606;12.186;2022-08-04T03:59:53;4.07;;;3.10;;
4583;SDS011;2304;47.606;12.186;2022-08-04T04:05:10;4.37;;;3.30;;
4583;SDS011;2304;47.606;12.186;2022-08-04T04:10:37;8.43;;;3.50;;
4583;SDS011;2304;47.606;12.186;2022-08-04T04:16:13;5.57;;;3.70;;
4583;SDS011;2304;47.606;12.186;2022-08-04T04:21:35;5.90;;;3.60;;
4583;SDS011;2304;47.606;12.186;2022-08-04T04:27:04;23.53;;;5.23;;
4583;SDS011;2304;47.606;12.186;2022-08-04T04:32:20;5.53;;;3.47;;
4583;SDS011;2304;47.606;12.186;2022-08-04T04:37:29;11.70;;;3.77;;
4583;SDS011;2304;47.606;12.186;2022-08-04T04:48:11;8.17;;;4.10;;
4583;SDS011;2304;47.606;12.186;2022-08-04T04:53:26;8.57;;;4.03;;
4583;SDS011;2304;47.606;12.186;2022-08-04T04:58:32;5.60;;;4.33;;
4583;SDS011;2304;47.606;12.186;2022-08-04T05:03:46;17.13;;;3.90;;
4583;SDS011;2304;47.606;12.186;2022-08-04T05:09:09;5.30;;;4.47;;
4583;SDS011;2304;47.606;12.186;2022-08-04T05:14:21;6.40;;;4.50;;
4583;SDS011;2304;47.606;12.186;2022-08-04T05:19:27;7.90;;;4.30;;
4583;SDS011;2304;47.606;12.186;2022-08-04T05:24:39;6.87;;;4.33;;
4583;SDS011;2304;47.606;12.186;2022-08-04T05:29:52;8.87;;;4.50;;
4583;SDS011;2304;47.606;12.186;2022-08-04T05:34:57;7.57;;;5.17;;
4583;SDS011;2304;47.606;12.186;2022-08-04T05:40:05;8.00;;;4.07;;
4583;SDS011;2304;47.606;12.186;2022-08-04T05:45:10;7.63;;;4.27;;
4583;SDS011;2304;47.606;12.186;2022-08-04T05:50:14;4.63;;;3.70;;
4583;SDS011;2304;47.606;12.186;2022-08-04T05:55:16;7.13;;;4.30;;
4583;SDS011;2304;47.606;12.186;2022-08-04T06:00:20;6.23;;;4.20;;
4583;SDS011;2304;47.606;12.186;2022-08-04T06:05:24;5.30;;;4.03;;
4583;SDS011;2304;47.606;12.186;2022-08-04T06:10:28;6.60;;;4.10;;
4583;SDS011;2304;47.606;12.186;2022-08-04T06:15:36;6.00;;;4.13;;
4583;SDS011;2304;47.606;12.186;2022-08-04T06:20:41;5.40;;;3.60;;
4583;SDS011;2304;47.606;12.186;2022-08-04T06:25:45;5.73;;;4.60;;
4583;SDS011;2304;47.606;12.186;2022-08-04T06:30:51;7.47;;;3.90;;
4583;SDS011;2304;47.606;12.186;2022-08-04T06:35:54;4.93;;;4.40;;
4583;SDS011;2304;47.606;12.186;2022-08-04T06:40:57;6.40;;;4.17;;
4583;SDS011;2304;47.606;12.186;2022-08-04T06:46:04;6.83;;;4.17;;
4583;SDS011;2304;47.606;12.186;2022-08-04T06:51:08;5.53;;;3.50;;
4583;SDS011;2304;47.606;12.186;2022-08-04T06:56:13;6.50;;;3.77;;
4583;SDS011;2304;47.606;12.186;2022-08-04T07:01:18;7.73;;;4.20;;
4583;SDS011;2304;47.606;12.186;2022-08-04T07:06:21;11.87;;;4.70;;
4583;SDS011;2304;47.606;12.186;2022-08-04T07:11:24;10.13;;;4.17;;
4583;SDS011;2304;47.606;12.186;2022-08-04T07:16:28;6.90;;;4.30;;
4583;SDS011;2304;47.606;12.186;2022-08-04T07:21:32;8.33;;;4.40;;
4583;SDS011;2304;47.606;12.186;2022-08-04T07:26:35;5.20;;;4.07;;
4583;SDS011;2304;47.606;12.186;2022-08-04T07:31:38;6.53;;;4.07;;
4583;SDS011;2304;47.606;12.186;2022-08-04T07:36:40;9.63;;;4.17;;
4583;SDS011;2304;47.606;12.186;2022-08-04T07:41:42;6.93;;;4.80;;
4583;SDS011;2304;47.606;12.186;2022-08-04T07:46:46;7.17;;;3.87;;
4583;SDS011;2304;47.606;12.186;2022-08-04T07:51:48;16.83;;;4.43;;
4583;SDS011;2304;47.606;12.186;2022-08-04T07:56:51;4.60;;;3.73;;
4583;SDS011;2304;47.606;12.186;2022-08-04T08:01:55;5.10;;;3.87;;
4583;SDS011;2304;47.606;12.186;2022-08-04T08:07:00;6.80;;;3.60;;
4583;SDS011;2304;47.606;12.186;2022-08-04T08:12:02;7.53;;;4.07;;
4583;SDS011;2304;47.606;12.186;2022-08-04T08:17:06;6.23;;;3.17;;
4583;SDS011;2304;47.606;12.186;2022-08-04T08:22:09;5.60;;;3.43;;
4583;SDS011;2304;47.606;12.186;2022-08-04T08:27:12;7.13;;;3.80;;
4583;SDS011;2304;47.606;12.186;2022-08-04T08:32:15;6.20;;;3.50;;
4583;SDS011;2304;47.606;12.186;2022-08-04T08:37:18;7.10;;;4.13;;
4583;SDS011;2304;47.606;12.186;2022-08-04T08:48:14;4.97;;;3.80;;
4583;SDS011;2304;47.606;12.186;2022-08-04T08:53:40;6.77;;;4.10;;
4583;SDS011;2304;47.606;12.186;2022-08-04T08:58:57;5.03;;;4.20;;
4583;SDS011;2304;47.606;12.186;2022-08-04T09:09:48;5.83;;;4.37;;
4583;SDS011;2304;47.606;12.186;2022-08-04T09:15:02;6.40;;;4.10;;
4583;SDS011;2304;47.606;12.186;2022-08-04T09:20:12;12.10;;;4.40;;
4583;SDS011;2304;47.606;12.186;2022-08-04T09:25:22;5.27;;;4.07;;
4583;SDS011;2304;47.606;12.186;2022-08-04T09:30:28;5.77;;;4.17;;
4583;SDS011;2304;47.606;12.186;2022-08-04T09:35:39;6.03;;;4.00;;
4583;SDS011;2304;47.606;12.186;2022-08-04T09:40:48;5.35;;;3.78;;
4583;SDS011;2304;47.606;12.186;2022-08-04T09:45:57;6.07;;;3.90;;
4583;SDS011;2304;47.606;12.186;2022-08-04T09:51:10;5.07;;;4.18;;
4583;SDS011;2304;47.606;12.186;2022-08-04T09:56:22;7.30;;;4.40;;
4583;SDS011;2304;47.606;12.186;2022-08-04T10:01:29;5.10;;;3.87;;
4583;SDS011;2304;47.606;12.186;2022-08-04T10:06:35;4.80;;;3.80;;
4583;SDS011;2304;47.606;12.186;2022-08-04T10:11:57;5.07;;;4.00;;
4583;SDS011;2304;47.606;12.186;2022-08-04T10:17:15;5.80;;;4.10;;
4583;SDS011;2304;47.606;12.186;2022-08-04T10:22:29;7.05;;;4.32;;
4583;SDS011;2304;47.606;12.186;2022-08-04T10:27:39;4.40;;;4.00;;
4583;SDS011;2304;47.606;12.186;2022-08-04T10:32:46;4.40;;;3.90;;
4583;SDS011;2304;47.606;12.186;2022-08-04T10:37:55;5.00;;;4.07;;
4583;SDS011;2304;47.606;12.186;2022-08-04T10:43:16;4.25;;;3.85;;
4583;SDS011;2304;47.606;12.186;2022-08-04T10:48:28;4.22;;;3.75;;
4583;SDS011;2304;47.606;12.186;2022-08-04T10:53:40;7.03;;;3.65;;
4583;SDS011;2304;47.606;12.186;2022-08-04T10:58:44;6.25;;;4.05;;
4583;SDS011;2304;47.606;12.186;2022-08-04T11:03:54;5.18;;;3.97;;
4583;SDS011;2304;47.606;12.186;2022-08-04T11:09:00;4.95;;;3.47;;
4583;SDS011;2304;47.606;12.186;2022-08-04T11:14:06;5.45;;;3.70;;
4583;SDS011;2304;47.606;12.186;2022-08-04T11:19:14;6.93;;;3.90;;
4583;SDS011;2304;47.606;12.186;2022-08-04T11:24:36;4.35;;;3.60;;
4583;SDS011;2304;47.606;12.186;2022-08-04T11:29:48;4.90;;;3.53;;
4583;SDS011;2304;47.606;12.186;2022-08-04T11:34:59;4.00;;;3.60;;
4583;SDS011;2304;47.606;12.186;2022-08-04T11:40:08;4.53;;;3.40;;
4583;SDS011;2304;47.606;12.186;2022-08-04T11:45:14;4.03;;;3.62;;
4583;SDS011;2304;47.606;12.186;2022-08-04T11:50:20;7.20;;;3.45;;
4583;SDS011;2304;47.606;12.186;2022-08-04T11:55:29;4.53;;;3.85;;
4583;SDS011;2304;47.606;12.186;2022-08-04T12:00:32;5.15;;;3.25;;
4583;SDS011;2304;47.606;12.186;2022-08-04T12:05:43;3.28;;;2.67;;
4583;SDS011;2304;47.606;12.186;2022-08-04T12:10:56;3.90;;;3.25;;
4583;SDS011;2304;47.606;12.186;2022-08-04T12:16:09;5.93;;;3.03;;
4583;SDS011;2304;47.606;12.186;2022-08-04T12:21:18;3.92;;;3.42;;
4583;SDS011;2304;47.606;12.186;2022-08-04T12:26:28;3.70;;;3.40;;
4583;SDS011;2304;47.606;12.186;2022-08-04T12:31:35;5.20;;;3.45;;
4583;SDS011;2304;47.606;12.186;2022-08-04T12:36:46;3.53;;;3.00;;
4583;SDS011;2304;47.606;12.186;2022-08-04T12:42:00;2.95;;;2.65;;
4583;SDS011;2304;47.606;12.186;2022-08-04T12:47:04;3.55;;;2.83;;
4583;SDS011;2304;47.606;12.186;2022-08-04T12:52:10;3.00;;;2.70;;
4583;SDS011;2304;47.606;12.186;2022-08-04T12:57:16;4.05;;;2.72;;
4583;SDS011;2304;47.606;12.186;2022-08-04T13:02:23;3.08;;;2.67;;
4583;SDS011;2304;47.606;12.186;2022-08-04T13:07:27;5.78;;;3.17;;
4583;SDS011;2304;47.606;12.186;2022-08-04T13:12:38;3.10;;;2.80;;
4583;SDS011;2304;47.606;12.186;2022-08-04T13:17:44;4.47;;;2.80;;
4583;SDS011;2304;47.606;12.186;2022-08-04T13:22:50;6.35;;;3.17;;
4583;SDS011;2304;47.606;12.186;2022-08-04T13:27:59;6.32;;;3.25;;
4583;SDS011;2304;47.606;12.186;2022-08-04T13:33:02;5.10;;;2.75;;
4583;SDS011;2304;47.606;12.186;2022-08-04T13:38:05;4.03;;;2.75;;
4583;SDS011;2304;47.606;12.186;2022-08-04T13:43:22;3.37;;;2.67;;
4583;SDS011;2304;47.606;12.186;2022-08-04T13:48:29;4.65;;;2.62;;
4583;SDS011;2304;47.606;12.186;2022-08-04T13:53:33;3.12;;;2.80;;
4583;SDS011;2304;47.606;12.186;2022-08-04T13:58:40;3.42;;;2.60;;
4583;SDS011;2304;47.606;12.186;2022-08-04T14:03:50;2.85;;;2.47;;
4583;SDS011;2304;47.606;12.186;2022-08-04T14:08:57;4.55;;;2.67;;
4583;SDS011;2304;47.606;12.186;2022-08-04T14:14:12;5.32;;;2.58;;
4583;SDS011;2304;47.606;12.186;2022-08-04T14:19:15;2.95;;;2.53;;
4583;SDS011;2304;47.606;12.186;2022-08-04T14:24:24;3.10;;;2.80;;
4583;SDS011;2304;47.606;12.186;2022-08-04T14:29:36;7.40;;;2.97;;
4583;SDS011;2304;47.606;12.186;2022-08-04T14:34:41;3.03;;;2.70;;
4583;SDS011;2304;47.606;12.186;2022-08-04T14:39:45;4.43;;;2.70;;
4583;SDS011;2304;47.606;12.186;2022-08-04T14:44:53;4.65;;;2.78;;
4583;SDS011;2304;47.606;12.186;2022-08-04T14:49:55;3.10;;;2.80;;
4583;SDS011;2304;47.606;12.186;2022-08-04T14:54:57;4.45;;;2.50;;
4583;SDS011;2304;47.606;12.186;2022-08-04T15:00:24;4.68;;;3.10;;
4583;SDS011;2304;47.606;12.186;2022-08-04T15:05:27;5.87;;;2.80;;
4583;SDS011;2304;47.606;12.186;2022-08-04T15:10:30;3.65;;;2.95;;
4583;SDS011;2304;47.606;12.186;2022-08-04T15:15:33;5.72;;;3.08;;
4583;SDS011;2304;47.606;12.186;2022-08-04T15:20:36;4.28;;;2.90;;
4583;SDS011;2304;47.606;12.186;2022-08-04T15:25:39;3.00;;;2.70;;
4583;SDS011;2304;47.606;12.186;2022-08-04T15:30:46;3.87;;;2.33;;
4583;SDS011;2304;47.606;12.186;2022-08-04T15:35:50;4.05;;;2.75;;
4583;SDS011;2304;47.606;12.186;2022-08-04T15:41:07;3.95;;;2.60;;
4583;SDS011;2304;47.606;12.186;2022-08-04T15:46:15;3.20;;;2.55;;
4583;SDS011;2304;47.606;12.186;2022-08-04T15:51:29;4.47;;;2.40;;
4583;SDS011;2304;47.606;12.186;2022-08-04T16:12:58;5.93;;;2.90;;
4583;SDS011;2304;47.606;12.186;2022-08-04T16:18:05;3.00;;;2.60;;
4583;SDS011;2304;47.606;12.186;2022-08-04T16:23:19;6.30;;;2.67;;
4583;SDS011;2304;47.606;12.186;2022-08-04T16:28:40;5.75;;;2.55;;
4583;SDS011;2304;47.606;12.186;2022-08-04T16:33:44;3.05;;;2.75;;
4583;SDS011;2304;47.606;12.186;2022-08-04T16:39:01;4.65;;;2.78;;
4583;SDS011;2304;47.606;12.186;2022-08-04T16:49:31;3.30;;;3.00;;
4583;SDS011;2304;47.606;12.186;2022-08-04T16:54:35;3.47;;;2.70;;
4583;SDS011;2304;47.606;12.186;2022-08-04T16:59:37;4.75;;;3.00;;
4583;SDS011;2304;47.606;12.186;2022-08-04T17:04:39;6.28;;;2.85;;
4583;SDS011;2304;47.606;12.186;2022-08-04T17:09:49;3.10;;;2.62;;
4583;SDS011;2304;47.606;12.186;2022-08-04T17:14:51;3.10;;;2.80;;
4583;SDS011;2304;47.606;12.186;2022-08-04T17:19:53;3.28;;;2.62;;
4583;SDS011;2304;47.606;12.186;2022-08-04T17:24:56;7.80;;;3.08;;
4583;SDS011;2304;47.606;12.186;2022-08-04T17:29:59;3.30;;;2.70;;
4583;SDS011;2304;47.606;12.186;2022-08-04T17:35:01;5.75;;;2.92;;
4583;SDS011;2304;47.606;12.186;2022-08-04T17:40:12;3.80;;;3.00;;
4583;SDS011;2304;47.606;12.186;2022-08-04T17:45:15;5.15;;;3.30;;
4583;SDS011;2304;47.606;12.186;2022-08-04T17:50:28;5.70;;;3.10;;
4583;SDS011;2304;47.606;12.186;2022-08-04T17:55:38;8.35;;;3.20;;
4583;SDS011;2304;47.606;12.186;2022-08-04T18:00:43;5.32;;;3.08;;
4583;SDS011;2304;47.606;12.186;2022-08-04T18:05:45;5.90;;;3.28;;
4583;SDS011;2304;47.606;12.186;2022-08-04T18:10:50;3.62;;;3.17;;
4583;SDS011;2304;47.606;12.186;2022-08-04T18:16:00;5.85;;;3.22;;
4583;SDS011;2304;47.606;12.186;2022-08-04T18:21:02;8.10;;;3.85;;
4583;SDS011;2304;47.606;12.186;2022-08-04T18:26:06;5.43;;;3.67;;
4583;SDS011;2304;47.606;12.186;2022-08-04T18:31:08;6.67;;;3.40;;
4583;SDS011;2304;47.606;12.186;2022-08-04T18:36:09;5.37;;;3.30;;
4583;SDS011;2304;47.606;12.186;2022-08-04T18:41:13;5.53;;;3.77;;
4583;SDS011;2304;47.606;12.186;2022-08-04T18:46:15;3.37;;;3.08;;
4583;SDS011;2304;47.606;12.186;2022-08-04T18:51:17;7.23;;;3.70;;
4583;SDS011;2304;47.606;12.186;2022-08-04T18:56:20;8.80;;;3.17;;
4583;SDS011;2304;47.606;12.186;2022-08-04T19:01:22;7.20;;;3.60;;
4583;SDS011;2304;47.606;12.186;2022-08-04T19:06:24;5.40;;;3.50;;
4583;SDS011;2304;47.606;12.186;2022-08-04T19:11:27;4.33;;;3.43;;
4583;SDS011;2304;47.606;12.186;2022-08-04T19:16:30;4.27;;;3.63;;
4583;SDS011;2304;47.606;12.186;2022-08-04T19:21:33;6.30;;;3.93;;
4583;SDS011;2304;47.606;12.186;2022-08-04T19:26:36;5.33;;;3.73;;
4583;SDS011;2304;47.606;12.186;2022-08-04T19:31:39;3.67;;;3.33;;
4583;SDS011;2304;47.606;12.186;2022-08-04T19:36:41;6.33;;;3.50;;
4583;SDS011;2304;47.606;12.186;2022-08-04T19:41:45;4.67;;;3.50;;
4583;SDS011;2304;47.606;12.186;2022-08-04T19:46:48;7.43;;;3.07;;
4583;SDS011;2304;47.606;12.186;2022-08-04T19:51:50;7.03;;;3.60;;
4583;SDS011;2304;47.606;12.186;2022-08-04T19:56:53;4.97;;;3.40;;
4583;SDS011;2304;47.606;12.186;2022-08-04T20:01:55;6.40;;;3.70;;
4583;SDS011;2304;47.606;12.186;2022-08-04T20:06:57;5.53;;;3.70;;
4583;SDS011;2304;47.606;12.186;2022-08-04T20:12:01;4.73;;;3.80;;
4583;SDS011;2304;47.606;12.186;2022-08-04T20:17:03;6.30;;;4.33;;
4583;SDS011;2304;47.606;12.186;2022-08-04T20:22:05;6.50;;;3.67;;
4583;SDS011;2304;47.606;12.186;2022-08-04T20:27:09;5.87;;;4.10;;
4583;SDS011;2304;47.606;12.186;2022-08-04T20:32:11;5.37;;;4.00;;
4583;SDS011;2304;47.606;12.186;2022-08-04T20:37:13;5.80;;;4.00;;
4583;SDS011;2304;47.606;12.186;2022-08-04T20:42:16;4.97;;;3.70;;
4583;SDS011;2304;47.606;12.186;2022-08-04T20:47:18;6.97;;;3.63;;
4583;SDS011;2304;47.606;12.186;2022-08-04T20:52:20;5.10;;;3.57;;
4583;SDS011;2304;47.606;12.186;2022-08-04T20:57:23;7.53;;;4.10;;
4583;SDS011;2304;47.606;12.186;2022-08-04T21:02:25;5.80;;;4.50;;
4583;SDS011;2304;47.606;12.186;2022-08-04T21:07:28;4.63;;;3.20;;
4583;SDS011;2304;47.606;12.186;2022-08-04T21:12:31;6.57;;;3.53;;
4583;SDS011;2304;47.606;12.186;2022-08-04T21:17:34;10.70;;;4.30;;
4583;SDS011;2304;47.606;12.186;2022-08-04T21:22:36;4.87;;;3.63;;
4583;SDS011;2304;47.606;12.186;2022-08-04T21:27:39;12.17;;;4.17;;
4583;SDS011;2304;47.606;12.186;2022-08-04T21:32:41;7.07;;;3.90;;
4583;SDS011;2304;47.606;12.186;2022-08-04T21:37:43;8.80;;;4.47;;
4583;SDS011;2304;47.606;12.186;2022-08-04T21:42:46;7.20;;;3.57;;
4583;SDS011;2304;47.606;12.186;2022-08-04T21:47:48;7.67;;;4.03;;
4583;SDS011;2304;47.606;12.186;2022-08-04T21:52:50;8.10;;;3.97;;
4583;SDS011;2304;47.606;12.186;2022-08-04T21:57:53;6.30;;;3.90;;
4583;SDS011;2304;47.606;12.186;2022-08-04T22:02:55;7.73;;;4.00;;
4583;SDS011;2304;47.606;12.186;2022-08-04T22:07:57;4.60;;;3.63;;
4583;SDS011;2304;47.606;12.186;2022-08-04T22:13:00;9.00;;;4.30;;
4583;SDS011;2304;47.606;12.186;2022-08-04T22:18:02;6.77;;;3.90;;
4583;SDS011;2304;47.606;12.186;2022-08-04T22:23:04;5.80;;;4.27;;
4583;SDS011;2304;47.606;12.186;2022-08-04T22:28:07;8.90;;;4.63;;
4583;SDS011;2304;47.606;12.186;2022-08-04T22:33:09;5.50;;;3.90;;
4583;SDS011;2304;47.606;12.186;2022-08-04T22:38:11;7.93;;;4.40;;
4583;SDS011;2304;47.606;12.186;2022-08-04T22:43:15;4.93;;;4.30;;
4583;SDS011;2304;47.606;12.186;2022-08-04T22:48:17;7.40;;;4.80;;
4583;SDS011;2304;47.606;12.186;2022-08-04T22:53:19;5.00;;;4.43;;
4583;SDS011;2304;47.606;12.186;2022-08-04T22:58:22;7.27;;;4.40;;
4583;SDS011;2304;47.606;12.186;2022-08-04T23:03:24;9.00;;;4.67;;
4583;SDS011;2304;47.606;12.186;2022-08-04T23:08:26;6.40;;;4.60;;
4583;SDS011;2304;47.606;12.186;2022-08-04T23:13:30;7.73;;;4.60;;
4583;SDS011;2304;47.606;12.186;2022-08-04T23:18:32;5.80;;;4.80;;
4583;SDS011;2304;47.606;12.186;2022-08-04T23:23:34;7.40;;;4.80;;
4583;SDS011;2304;47.606;12.186;2022-08-04T23:28:37;6.40;;;4.97;;
4583;SDS011;2304;47.606;12.186;2022-08-04T23:33:39;7.27;;;5.03;;
4583;SDS011;2304;47.606;12.186;2022-08-04T23:38:41;7.00;;;5.33;;
4583;SDS011;2304;47.606;12.186;2022-08-04T23:43:44;7.43;;;5.27;;
4583;SDS011;2304;47.606;12.186;2022-08-04T23:48:46;11.73;;;6.70;;
4583;SDS011;2304;47.606;12.186;2022-08-04T23:53:48;16.40;;;5.60;;
4583;SDS011;2304;47.606;12.186;2022-08-04T23:58:52;8.70;;;6.13;;
